Time;durP1;ratioP1;P1;durP2;ratioP2;P2;SDS_P1;SDS_P2;PMS_P1;PMS_P2;Temp;Humidity;BMP_temperature;BMP_pressure;BME280_temperature;BME280_humidity;BME280_pressure;Samples;Min_cycle;Max_cycle;Signal;HPM_P1;HPM_P2
2022/08/17 00:01:24;;;;;;;;;;;;;;;26.32;54.14;100412.44;4958868;29;19914;-80
2022/08/17 00:04:09;;;;;;;;;;;;;;;26.30;53.88;100398.16;4958399;29;20383;-81
2022/08/17 00:06:53;;;;;;;;;;;;;;;26.26;53.97;100403.00;4946271;29;19918;-80
2022/08/17 00:09:37;;;;;;;;;;;;;;;26.24;54.21;100402.66;4944294;29;19914;-81
2022/08/17 00:12:22;;;;;;;;;;;;;;;26.24;54.78;100396.28;4958193;29;19922;-80
2022/08/17 00:15:07;;;;;;;;;;;;;;;26.25;54.07;100395.09;4943484;29;19915;-81
2022/08/17 00:17:52;;;;;;;;;;;;;;;26.28;54.16;100397.00;4926059;29;19919;-81
2022/08/17 00:20:37;;;;;;;;;;;;;;;26.28;54.12;100403.38;4939172;29;19934;-81
2022/08/17 00:23:22;;;;;;;;;;;;;;;26.26;54.27;100396.66;4928840;29;19914;-81
2022/08/17 00:26:06;;;;;;;;;;;;;;;26.27;53.84;100387.84;4939656;29;20383;-81
2022/08/17 00:28:51;;;;;;;;;;;;;;;26.26;53.83;100389.06;4939528;29;20391;-81
2022/08/17 00:31:36;;;;;;;;;;;;;;;26.26;54.11;100389.06;4940332;29;19915;-81
2022/08/17 00:34:21;;;;;;;;;;;;;;;26.26;53.76;100385.50;4950397;29;19914;-80
2022/08/17 00:37:05;;;;;;;;;;;;;;;26.22;53.64;100399.50;4958364;29;19918;-80
2022/08/17 00:39:49;;;;;;;;;;;;;;;26.18;53.62;100386.81;4947382;29;19915;-80
2022/08/17 00:42:34;;;;;;;;;;;;;;;26.14;53.79;100381.34;4956636;28;19914;-80
2022/08/17 00:45:19;;;;;;;;;;;;;;;26.13;53.87;100376.97;4944040;29;19914;-81
2022/08/17 00:48:03;;;;;;;;;;;;;;;26.04;54.64;100376.75;4947725;29;19922;-81
2022/08/17 00:50:57;;;;;;;;;;;;;;;25.95;55.29;100377.34;4958454;29;20359;-81
2022/08/17 00:53:43;;;;;;;;;;;;;;;25.88;55.56;100371.09;4958254;29;20564;-80
2022/08/17 00:56:30;;;;;;;;;;;;;;;25.83;55.81;100371.59;4957736;29;19933;-81
2022/08/17 00:59:17;;;;;;;;;;;;;;;25.78;56.08;100372.09;4944584;29;19918;-80
2022/08/17 01:02:03;;;;;;;;;;;;;;;25.75;56.23;100370.19;4943106;29;20395;-80
2022/08/17 01:04:50;;;;;;;;;;;;;;;25.70;56.29;100371.44;4957793;29;19914;-81
2022/08/17 01:07:34;;;;;;;;;;;;;;;25.72;56.06;100371.00;4958082;29;20544;-81
2022/08/17 01:10:21;;;;;;;;;;;;;;;25.71;56.07;100375.78;4957948;29;19914;-81
2022/08/17 01:13:06;;;;;;;;;;;;;;;25.74;56.13;100379.75;4943376;29;19914;-81
2022/08/17 01:15:59;;;;;;;;;;;;;;;25.68;56.79;100382.22;4957980;29;19922;-81
2022/08/17 01:18:44;;;;;;;;;;;;;;;25.63;56.86;100379.16;4957681;29;19922;-81
2022/08/17 01:21:47;;;;;;;;;;;;;;;25.64;56.93;100375.94;4957640;29;19914;-81
2022/08/17 01:24:33;;;;;;;;;;;;;;;25.64;57.40;100383.50;4957707;29;19973;-81
2022/08/17 01:27:18;;;;;;;;;;;;;;;25.67;57.33;100385.44;4957741;29;20287;-81
2022/08/17 01:30:05;;;;;;;;;;;;;;;25.62;57.15;100378.34;4958037;29;20387;-80
2022/08/17 01:32:50;;;;;;;;;;;;;;;25.61;57.45;100379.56;4943610;29;19914;-81
2022/08/17 01:35:35;;;;;;;;;;;;;;;25.57;57.63;100378.06;4958035;29;19918;-80
2022/08/17 01:38:19;;;;;;;;;;;;;;;25.49;57.80;100367.03;4958073;29;19918;-81
2022/08/17 01:41:12;;;;;;;;;;;;;;;25.44;58.03;100370.31;4944938;29;19919;-81
2022/08/17 01:44:03;;;;;;;;;;;;;;;25.35;58.57;100370.03;4957612;29;19915;-81
2022/08/17 01:46:48;;;;;;;;;;;;;;;25.27;58.72;100373.38;4946441;29;19914;-81
2022/08/17 01:49:32;;;;;;;;;;;;;;;25.14;59.17;100384.34;4957303;29;19914;-81
2022/08/17 01:52:17;;;;;;;;;;;;;;;25.13;59.51;100380.78;4957526;29;19914;-80
2022/08/17 01:55:02;;;;;;;;;;;;;;;25.13;59.35;100383.56;4960059;28;19914;-81
2022/08/17 01:57:47;;;;;;;;;;;;;;;25.09;58.90;100385.59;5003758;23;19922;-82
2022/08/17 02:00:31;;;;;;;;;;;;;;;25.10;59.16;100392.72;4934161;29;19918;-82
2022/08/17 02:03:16;;;;;;;;;;;;;;;25.07;59.19;100388.03;4931584;29;19914;-82
2022/08/17 02:06:04;;;;;;;;;;;;;;;25.05;59.13;100401.56;4938618;29;19918;-83
2022/08/17 02:08:49;;;;;;;;;;;;;;;25.06;58.91;100399.56;4938357;29;19915;-83
2022/08/17 02:11:36;;;;;;;;;;;;;;;25.00;58.88;100404.03;4942670;29;19914;-82
2022/08/17 02:14:22;;;;;;;;;;;;;;;24.98;58.91;100406.47;4957366;29;19915;-82
2022/08/17 02:17:06;;;;;;;;;;;;;;;24.93;59.27;100413.28;4939714;29;19914;-81
2022/08/17 02:19:51;;;;;;;;;;;;;;;24.97;59.28;100422.38;4931363;29;19922;-81
2022/08/17 02:22:37;;;;;;;;;;;;;;;24.97;59.43;100427.13;4929436;28;19915;-82
2022/08/17 02:25:23;;;;;;;;;;;;;;;24.51;61.01;100428.53;4941870;29;19914;-81
2022/08/17 02:28:09;;;;;;;;;;;;;;;24.53;61.27;100428.13;4943754;29;19914;-82
2022/08/17 02:30:54;;;;;;;;;;;;;;;24.35;61.79;100431.13;4946883;28;20371;-82
2022/08/17 02:33:39;;;;;;;;;;;;;;;24.10;62.89;100427.81;4945572;29;19915;-83
2022/08/17 02:36:24;;;;;;;;;;;;;;;24.11;62.78;100421.84;4943964;29;19940;-82
2022/08/17 02:39:10;;;;;;;;;;;;;;;24.25;62.53;100418.13;4946657;29;19919;-82
2022/08/17 02:42:01;;;;;;;;;;;;;;;24.41;61.49;100414.78;4943219;29;19914;-81
2022/08/17 02:44:46;;;;;;;;;;;;;;;24.41;61.77;100421.13;4932743;29;19915;-81
2022/08/17 02:47:30;;;;;;;;;;;;;;;24.50;61.39;100426.94;4936982;28;20298;-82
2022/08/17 02:50:16;;;;;;;;;;;;;;;24.55;61.45;100434.03;4936982;29;19914;-82
2022/08/17 02:53:00;;;;;;;;;;;;;;;24.45;62.69;100429.41;4930075;29;19915;-82
2022/08/17 02:55:45;;;;;;;;;;;;;;;24.38;62.86;100423.94;4931902;28;20384;-82
2022/08/17 02:58:29;;;;;;;;;;;;;;;24.26;62.95;100428.06;4948437;28;19918;-82
2022/08/17 03:01:13;;;;;;;;;;;;;;;24.16;63.57;100428.94;4930054;29;19915;-81
2022/08/17 03:03:58;;;;;;;;;;;;;;;24.21;63.02;100436.84;4939365;28;19914;-82
2022/08/17 03:06:42;;;;;;;;;;;;;;;24.19;63.31;100433.69;4927648;29;19918;-82
2022/08/17 03:09:27;;;;;;;;;;;;;;;24.15;63.13;100425.38;4918647;29;19915;-82
2022/08/17 03:12:12;;;;;;;;;;;;;;;24.12;63.59;100422.63;4932650;29;19922;-82
2022/08/17 03:14:57;;;;;;;;;;;;;;;24.18;63.36;100415.44;4946973;29;19914;-82
2022/08/17 03:17:42;;;;;;;;;;;;;;;24.20;63.36;100419.38;4944314;29;19918;-82
2022/08/17 03:20:28;;;;;;;;;;;;;;;24.23;63.03;100424.09;4942905;29;19914;-83
2022/08/17 03:23:13;;;;;;;;;;;;;;;24.17;63.19;100419.44;4946917;28;19918;-83
2022/08/17 03:25:57;;;;;;;;;;;;;;;24.19;63.22;100405.91;4949339;28;19914;-83
2022/08/17 03:28:42;;;;;;;;;;;;;;;24.14;63.30;100415.44;4947954;28;19914;-82
2022/08/17 03:31:26;;;;;;;;;;;;;;;24.11;63.47;100407.16;4948777;28;19914;-83
2022/08/17 03:34:11;;;;;;;;;;;;;;;24.07;63.66;100398.09;4948868;28;20371;-83
2022/08/17 03:36:56;;;;;;;;;;;;;;;24.07;63.53;100398.09;4956886;29;19922;-82
2022/08/17 03:39:40;;;;;;;;;;;;;;;24.08;63.50;100397.66;4933538;29;19919;-83
2022/08/17 03:42:26;;;;;;;;;;;;;;;24.09;63.08;100398.44;4948762;28;19915;-83
2022/08/17 03:45:11;;;;;;;;;;;;;;;24.11;63.19;100398.81;4943740;29;19918;-83
2022/08/17 03:57:17;;;;;;;;;;;;;;;24.11;63.24;100407.16;4922833;29;19915;-81
2022/08/17 04:00:03;;;;;;;;;;;;;;;24.08;63.75;100414.31;4931789;29;19923;-83
2022/08/17 04:02:56;;;;;;;;;;;;;;;23.92;64.21;100424.44;4942795;29;19918;-82
2022/08/17 04:05:40;;;;;;;;;;;;;;;23.71;65.08;100408.78;4956153;29;19915;-83
2022/08/17 04:08:25;;;;;;;;;;;;;;;23.72;64.85;100411.13;4931490;29;19919;-80
2022/08/17 04:11:09;;;;;;;;;;;;;;;23.73;64.83;100406.38;4925814;29;19915;-81
2022/08/17 04:13:55;;;;;;;;;;;;;;;23.73;64.65;100409.16;4936260;29;19919;-81
2022/08/17 04:16:40;;;;;;;;;;;;;;;23.71;64.57;100400.47;4935787;29;19915;-79
2022/08/17 04:19:24;;;;;;;;;;;;;;;23.70;64.90;100409.97;4935920;29;19919;-80
2022/08/17 04:22:08;;;;;;;;;;;;;;;23.72;64.96;100402.03;4922350;29;19915;-81
2022/08/17 04:24:53;;;;;;;;;;;;;;;23.70;64.76;100402.44;4931018;29;19919;-79
2022/08/17 04:27:37;;;;;;;;;;;;;;;23.68;65.16;100402.06;4943140;28;20386;-81
2022/08/17 04:30:22;;;;;;;;;;;;;;;23.73;64.74;100400.81;4928328;29;19915;-81
2022/08/17 04:33:09;;;;;;;;;;;;;;;23.76;64.82;100398.03;4937552;29;19915;-81
2022/08/17 04:35:56;;;;;;;;;;;;;;;23.74;65.11;100403.19;4926188;29;19915;-81
2022/08/17 04:38:42;;;;;;;;;;;;;;;23.81;64.78;100411.47;4927692;29;19927;-82
2022/08/17 04:44:30;;;;;;;;;;;;;;;23.86;64.34;100401.88;4932670;29;19997;-80
2022/08/17 04:47:14;;;;;;;;;;;;;;;23.84;64.43;100404.28;4924556;29;19914;-80
2022/08/17 04:50:01;;;;;;;;;;;;;;;23.86;64.59;100418.56;4914222;29;19915;-79
2022/08/17 04:52:45;;;;;;;;;;;;;;;23.90;64.54;100421.28;4934334;29;19926;-81
2022/08/17 04:55:30;;;;;;;;;;;;;;;23.91;64.54;100423.66;4926188;29;19914;-82
2022/08/17 04:58:14;;;;;;;;;;;;;;;23.93;64.48;100420.44;4940482;29;19919;-84
2022/08/17 05:00:59;;;;;;;;;;;;;;;23.92;64.27;100430.78;4944702;28;19914;-84
2022/08/17 05:03:44;;;;;;;;;;;;;;;23.87;64.52;100439.56;4922312;29;19915;-83
2022/08/17 05:06:29;;;;;;;;;;;;;;;23.71;65.06;100445.69;4922241;29;19915;-85
2022/08/17 05:09:14;;;;;;;;;;;;;;;23.72;65.13;100458.34;4939333;29;20100;-85
2022/08/17 05:12:00;;;;;;;;;;;;;;;23.63;65.68;100457.25;4932136;28;19914;-84
2022/08/17 05:14:44;;;;;;;;;;;;;;;23.52;66.54;100462.13;4922369;29;19919;-83
2022/08/17 05:17:29;;;;;;;;;;;;;;;23.47;66.39;100466.09;4935838;28;19914;-83
2022/08/17 05:20:14;;;;;;;;;;;;;;;23.49;66.85;100474.81;4922165;29;19919;-84
2022/08/17 05:23:00;;;;;;;;;;;;;;;23.38;66.94;100474.06;4922460;29;19915;-83
2022/08/17 05:25:46;;;;;;;;;;;;;;;23.44;67.34;100481.56;4944034;28;19918;-82
2022/08/17 05:28:31;;;;;;;;;;;;;;;23.51;67.34;100497.41;4942220;28;19914;-82
2022/08/17 05:31:15;;;;;;;;;;;;;;;23.55;67.04;100500.16;4936262;29;19936;-82
2022/08/17 05:34:00;;;;;;;;;;;;;;;23.73;66.28;100512.69;4943591;29;19926;-82
2022/08/17 05:36:45;;;;;;;;;;;;;;;23.84;65.72;100504.25;4926366;29;19914;-82
2022/08/17 05:39:29;;;;;;;;;;;;;;;23.83;64.75;100503.47;4935177;28;19923;-82
2022/08/17 05:42:17;;;;;;;;;;;;;;;23.92;64.31;100500.25;4931392;29;20363;-82
2022/08/17 05:45:02;;;;;;;;;;;;;;;23.77;63.28;100496.00;4924144;29;19914;-83
2022/08/17 05:47:46;;;;;;;;;;;;;;;23.97;63.13;100504.56;4937799;29;19915;-83
2022/08/17 05:50:33;;;;;;;;;;;;;;;24.10;62.48;100513.94;4936349;29;20083;-83
2022/08/17 05:53:33;;;;;;;;;;;;;;;24.17;62.79;100520.25;4929833;29;19915;-83
2022/08/17 05:56:24;;;;;;;;;;;;;;;24.19;61.64;100523.41;4932433;29;19914;-82
2022/08/17 05:59:11;;;;;;;;;;;;;;;24.08;61.64;100527.44;4916176;29;19919;-83
2022/08/17 06:02:14;;;;;;;;;;;;;;;24.29;61.12;100538.38;4904469;29;19915;-83
2022/08/17 06:05:05;;;;;;;;;;;;;;;24.20;61.92;100538.09;4938838;29;19914;-83
2022/08/17 06:07:58;;;;;;;;;;;;;;;24.35;60.85;100542.31;4935207;29;19915;-84
2022/08/17 06:10:47;;;;;;;;;;;;;;;24.47;60.20;100549.34;4901978;29;19923;-84
2022/08/17 06:13:44;;;;;;;;;;;;;;;24.49;60.42;100536.59;4901709;29;19919;-85
2022/08/17 06:16:37;;;;;;;;;;;;;;;24.66;59.64;100549.50;4916020;29;20369;-83
2022/08/17 06:19:31;;;;;;;;;;;;;;;24.80;59.50;100547.75;4916272;29;19923;-84
2022/08/17 06:22:18;;;;;;;;;;;;;;;25.15;58.39;100544.53;4928790;29;19923;-84
2022/08/17 06:25:07;;;;;;;;;;;;;;;25.47;57.33;100550.44;4918467;29;19915;-79
2022/08/17 06:27:55;;;;;;;;;;;;;;;25.56;56.88;100547.16;4910094;29;19915;-81
2022/08/17 06:30:46;;;;;;;;;;;;;;;25.59;56.29;100556.69;4927058;29;20375;-82
2022/08/17 06:33:34;;;;;;;;;;;;;;;25.86;55.75;100560.19;4927126;29;19914;-83
2022/08/17 06:36:29;;;;;;;;;;;;;;;26.02;55.97;100568.69;4916296;29;19915;-84
2022/08/17 06:39:32;;;;;;;;;;;;;;;26.21;55.71;100561.63;4938223;29;19922;-81
2022/08/17 06:42:39;;;;;;;;;;;;;;;26.30;54.60;100582.19;4944106;29;19915;-81
2022/08/17 06:45:32;;;;;;;;;;;;;;;26.35;54.52;100576.13;4941371;29;19918;-79
2022/08/17 06:48:26;;;;;;;;;;;;;;;26.30;55.63;100573.03;4939913;29;20382;-83
2022/08/17 06:51:17;;;;;;;;;;;;;;;26.52;55.36;100573.41;4934346;28;19922;-82
2022/08/17 06:54:04;;;;;;;;;;;;;;;26.66;54.71;100562.00;4957450;29;19940;-80
2022/08/17 06:56:58;;;;;;;;;;;;;;;26.70;53.74;100560.69;4947094;28;19914;-78
2022/08/17 06:59:52;;;;;;;;;;;;;;;27.06;54.05;100566.38;4943022;29;19919;-79
2022/08/17 07:02:36;;;;;;;;;;;;;;;27.56;52.66;100557.69;4936824;29;19926;-79
2022/08/17 07:05:24;;;;;;;;;;;;;;;27.97;51.48;100554.28;4937731;29;19915;-81
2022/08/17 07:08:11;;;;;;;;;;;;;;;28.58;49.58;100552.69;4933354;29;19914;-81
2022/08/17 07:11:00;;;;;;;;;;;;;;;28.98;48.12;100564.38;4939107;29;20303;-82
2022/08/17 07:13:44;;;;;;;;;;;;;;;29.42;45.01;100557.06;4955598;29;19918;-79
2022/08/17 07:16:35;;;;;;;;;;;;;;;29.77;44.95;100542.69;4943449;29;19914;-79
2022/08/17 07:19:21;;;;;;;;;;;;;;;29.55;44.35;100544.63;4929551;29;20399;-81
2022/08/17 07:22:09;;;;;;;;;;;;;;;29.03;45.41;100536.59;4923452;29;19915;-83
2022/08/17 07:24:57;;;;;;;;;;;;;;;28.67;46.32;100536.84;4914293;29;19922;-82
2022/08/17 07:27:44;;;;;;;;;;;;;;;28.39;48.33;100546.03;4937434;29;20371;-82
2022/08/17 07:30:32;;;;;;;;;;;;;;;28.20;48.26;100549.72;4938953;29;19914;-82
2022/08/17 07:33:18;;;;;;;;;;;;;;;28.04;48.99;100547.72;4929445;29;19918;-82
2022/08/17 07:36:04;;;;;;;;;;;;;;;27.92;49.03;100537.25;4925308;29;19915;-81
2022/08/17 07:38:56;;;;;;;;;;;;;;;27.81;49.54;100523.53;4923349;29;19919;-80
2022/08/17 07:41:41;;;;;;;;;;;;;;;27.72;50.27;100523.38;4922640;29;19915;-82
2022/08/17 07:44:26;;;;;;;;;;;;;;;27.66;50.08;100522.31;4927900;28;19915;-82
2022/08/17 07:50:26;;;;;;;;;;;;;;;27.57;50.17;100528.53;4922658;29;19914;-83
2022/08/17 07:53:17;;;;;;;;;;;;;;;27.56;50.08;100523.38;4922595;29;20363;-82
2022/08/17 07:56:01;;;;;;;;;;;;;;;27.53;50.81;100521.47;4926437;29;19915;-83
2022/08/17 07:58:47;;;;;;;;;;;;;;;27.52;50.53;100508.72;4957065;23;19922;-85
2022/08/17 08:01:36;;;;;;;;;;;;;;;27.55;50.15;100508.63;4952963;28;19918;-85
2022/08/17 08:04:33;;;;;;;;;;;;;;;27.57;49.93;100525.75;4950519;29;19914;-84
2022/08/17 08:07:20;;;;;;;;;;;;;;;27.59;49.90;100522.50;4953892;29;19915;-85
2022/08/17 08:10:08;;;;;;;;;;;;;;;27.58;49.64;100524.50;4943154;29;19915;-86
2022/08/17 08:13:08;;;;;;;;;;;;;;;27.61;49.13;100520.06;4953041;23;19922;-60
2022/08/17 08:16:16;;;;;;;;;;;;;;;27.65;48.45;100532.72;4942370;29;19919;-60
2022/08/17 08:19:00;;;;;;;;;;;;;;;27.68;48.68;100531.06;4954523;29;20317;-60
2022/08/17 08:21:49;;;;;;;;;;;;;;;27.75;48.61;100525.28;4936602;28;19915;-59
2022/08/17 08:24:48;;;;;;;;;;;;;;;27.78;48.87;100524.44;4935623;29;19914;-59
2022/08/17 08:27:32;;;;;;;;;;;;;;;27.82;48.53;100505.56;4925170;29;19915;-60
2022/08/17 08:30:20;;;;;;;;;;;;;;;27.91;48.31;100530.09;4938037;29;19914;-60
2022/08/17 08:33:11;;;;;;;;;;;;;;;27.99;48.32;100529.44;4934654;29;20314;-60
2022/08/17 08:36:16;;;;;;;;;;;;;;;28.05;48.20;100524.91;4939819;29;19915;-60
2022/08/17 08:39:22;;;;;;;;;;;;;;;28.12;47.38;100531.56;4934914;29;19918;-60
2022/08/17 08:42:16;;;;;;;;;;;;;;;28.23;46.42;100526.50;4934866;29;19915;-60
2022/08/17 08:45:14;;;;;;;;;;;;;;;28.30;46.34;100535.47;4935042;29;19918;-60
2022/08/17 08:48:04;;;;;;;;;;;;;;;28.38;46.03;100524.88;4940312;29;19971;-60
2022/08/17 08:50:58;;;;;;;;;;;;;;;28.45;46.00;100527.47;4934576;29;19915;-59
2022/08/17 08:53:53;;;;;;;;;;;;;;;28.46;44.94;100518.63;4935859;29;19915;-60
2022/08/17 08:56:47;;;;;;;;;;;;;;;28.56;45.17;100511.16;4939703;29;19914;-60
2022/08/17 08:59:50;;;;;;;;;;;;;;;28.64;44.41;100518.16;4937121;29;19918;-60
2022/08/17 09:02:53;;;;;;;;;;;;;;;28.71;43.84;100525.53;4934400;29;19915;-60
2022/08/17 09:05:38;;;;;;;;;;;;;;;28.74;42.60;100538.69;4934394;29;19915;-59
2022/08/17 09:08:35;;;;;;;;;;;;;;;28.76;41.16;100534.19;4934466;29;19915;-60
2022/08/17 09:11:27;;;;;;;;;;;;;;;28.74;40.08;100517.09;4921425;29;19919;-60
2022/08/17 09:14:22;;;;;;;;;;;;;;;28.90;40.42;100525.38;4935436;29;19915;-60
2022/08/17 09:17:11;;;;;;;;;;;;;;;28.89;40.69;100532.22;4940117;29;19914;-60
2022/08/17 09:20:03;;;;;;;;;;;;;;;28.91;39.93;100534.56;4934147;29;20287;-60
2022/08/17 09:22:51;;;;;;;;;;;;;;;28.94;39.93;100527.31;4933262;29;19914;-59
2022/08/17 09:25:48;;;;;;;;;;;;;;;28.98;39.38;100516.78;4928355;29;19915;-60
2022/08/17 09:28:34;;;;;;;;;;;;;;;29.03;38.46;100521.81;4932868;29;19914;-59
2022/08/17 09:31:22;;;;;;;;;;;;;;;29.13;39.41;100518.69;4929705;29;20098;-60
2022/08/17 09:34:10;;;;;;;;;;;;;;;29.19;38.73;100521.72;4939960;29;19914;-60
2022/08/17 09:37:04;;;;;;;;;;;;;;;29.26;37.58;100518.69;4953698;29;19915;-60
2022/08/17 09:39:54;;;;;;;;;;;;;;;29.33;38.51;100519.28;4954076;28;20410;-60
2022/08/17 09:42:44;;;;;;;;;;;;;;;29.37;38.16;100513.56;4935141;29;19915;-60
2022/08/17 09:45:49;;;;;;;;;;;;;;;29.38;38.13;100523.56;4933906;29;19915;-60
2022/08/17 09:48:36;;;;;;;;;;;;;;;29.45;37.73;100526.13;4934081;29;19915;-60
2022/08/17 09:51:29;;;;;;;;;;;;;;;29.51;37.67;100521.50;4933507;29;20366;-60
2022/08/17 09:54:20;;;;;;;;;;;;;;;29.48;38.53;100513.22;4934170;29;20293;-59
2022/08/17 09:57:12;;;;;;;;;;;;;;;29.45;38.80;100514.94;4931998;29;19915;-60
2022/08/17 09:59:59;;;;;;;;;;;;;;;29.40;37.76;100507.09;4933869;29;19918;-60
2022/08/17 10:02:53;;;;;;;;;;;;;;;29.40;37.66;100512.69;4933917;29;19914;-59
2022/08/17 10:05:45;;;;;;;;;;;;;;;29.44;37.94;100512.56;4934015;29;19915;-58
2022/08/17 10:08:51;;;;;;;;;;;;;;;29.54;37.94;100512.22;4933363;29;20366;-59
2022/08/17 10:15:14;;;;;;;;;;;;;;;29.69;38.67;100506.94;4930154;29;19915;-60
2022/08/17 10:17:58;;;;;;;;;;;;;;;29.73;37.89;100513.97;4933057;29;19923;-60
2022/08/17 10:20:43;;;;;;;;;;;;;;;29.75;37.97;100519.94;4933208;29;20286;-60
2022/08/17 10:26:34;;;;;;;;;;;;;;;29.69;37.72;100529.34;4928941;29;19919;-60
2022/08/17 10:29:21;;;;;;;;;;;;;;;29.70;37.72;100531.72;4932938;29;19915;-60
2022/08/17 10:32:09;;;;;;;;;;;;;;;29.73;36.99;100530.81;4935199;28;19915;-59
2022/08/17 10:35:00;;;;;;;;;;;;;;;29.76;38.00;100529.13;4940990;29;19918;-60
2022/08/17 10:37:47;;;;;;;;;;;;;;;29.80;37.94;100532.59;4938858;28;19914;-59
2022/08/17 10:40:32;;;;;;;;;;;;;;;29.79;38.12;100535.84;4937153;29;19919;-60
2022/08/17 10:43:32;;;;;;;;;;;;;;;29.80;38.50;100537.41;4937167;29;20283;-60
2022/08/17 10:46:16;;;;;;;;;;;;;;;29.69;38.55;100520.94;4935258;29;19914;-60
2022/08/17 10:49:10;;;;;;;;;;;;;;;29.83;38.80;100540.09;4922427;29;19919;-60
2022/08/17 10:51:56;;;;;;;;;;;;;;;29.85;39.08;100537.63;4923774;29;19914;-59
2022/08/17 10:54:46;;;;;;;;;;;;;;;29.91;39.13;100540.69;4906052;29;19915;-59
2022/08/17 10:57:30;;;;;;;;;;;;;;;29.93;38.98;100538.97;4927603;29;19914;-60
2022/08/17 11:00:19;;;;;;;;;;;;;;;29.95;38.62;100535.72;4927303;29;20375;-59
2022/08/17 11:03:14;;;;;;;;;;;;;;;29.96;37.96;100532.47;4926785;29;19915;-60
2022/08/17 11:06:18;;;;;;;;;;;;;;;29.97;37.98;100539.63;4932375;29;19915;-59
2022/08/17 11:09:05;;;;;;;;;;;;;;;29.98;37.65;100529.19;4926453;29;19914;-60
2022/08/17 11:11:49;;;;;;;;;;;;;;;30.00;38.27;100529.53;4924955;28;19915;-59
2022/08/17 11:14:46;;;;;;;;;;;;;;;30.02;38.49;100524.28;4922225;29;19915;-60
2022/08/17 11:17:51;;;;;;;;;;;;;;;30.03;38.59;100514.59;4934619;29;20294;-60
2022/08/17 11:20:48;;;;;;;;;;;;;;;30.04;39.56;100505.75;4953743;28;19919;-60
2022/08/17 11:23:36;;;;;;;;;;;;;;;30.06;39.97;100508.91;4925084;29;19919;-60
2022/08/17 11:26:26;;;;;;;;;;;;;;;30.07;40.33;100498.47;4930515;29;19914;-60
2022/08/17 11:29:26;;;;;;;;;;;;;;;30.08;41.04;100505.63;4928175;29;19914;-60
2022/08/17 11:32:27;;;;;;;;;;;;;;;30.08;40.89;100505.63;4931526;29;19915;-60
2022/08/17 11:35:20;;;;;;;;;;;;;;;30.07;40.88;100498.47;4928330;29;19918;-60
2022/08/17 11:38:05;;;;;;;;;;;;;;;30.05;40.04;100498.13;4932544;29;19915;-59
2022/08/17 11:40:52;;;;;;;;;;;;;;;30.05;41.24;100496.09;4935591;29;19923;-60
2022/08/17 11:43:43;;;;;;;;;;;;;;;30.05;41.34;100487.69;4936257;29;19915;-60
2022/08/17 11:53:28;;;;;;;;;;;;;;;30.07;41.68;100482.38;4933936;29;19918;-60
2022/08/17 11:56:33;;;;;;;;;;;;;;;30.07;41.70;100467.59;4922919;29;19923;-60
2022/08/17 11:59:31;;;;;;;;;;;;;;;30.06;41.91;100468.84;4931865;29;19918;-60
2022/08/17 12:02:33;;;;;;;;;;;;;;;30.06;42.16;100474.44;4924122;29;20355;-60
2022/08/17 12:05:20;;;;;;;;;;;;;;;30.07;43.43;100478.81;4920467;29;20299;-60
2022/08/17 12:08:16;;;;;;;;;;;;;;;30.08;42.68;100488.78;4938881;28;20286;-60
2022/08/17 12:11:15;;;;;;;;;;;;;;;30.06;42.31;100492.06;4934948;28;19915;-59
2022/08/17 12:13:59;;;;;;;;;;;;;;;30.07;42.90;100487.25;4934465;29;19914;-59
2022/08/17 12:16:56;;;;;;;;;;;;;;;30.05;42.92;100490.50;4938725;29;19914;-60
2022/08/17 12:19:42;;;;;;;;;;;;;;;30.03;43.49;100489.38;4931613;29;19919;-60
2022/08/17 12:22:32;;;;;;;;;;;;;;;30.04;43.98;100499.34;4909236;29;19915;-60
2022/08/17 12:25:19;;;;;;;;;;;;;;;30.04;43.63;100499.34;4931246;29;19922;-60
2022/08/17 12:28:16;;;;;;;;;;;;;;;30.02;44.05;100502.59;4915951;29;20370;-60
2022/08/17 12:31:02;;;;;;;;;;;;;;;30.03;43.90;100509.00;4928919;29;20522;-60
2022/08/17 12:33:48;;;;;;;;;;;;;;;30.04;43.79;100499.34;4925691;29;19914;-60
2022/08/17 12:36:34;;;;;;;;;;;;;;;30.07;43.78;100509.69;4930307;29;19922;-60
2022/08/17 12:39:21;;;;;;;;;;;;;;;30.07;43.79;100506.88;4933174;29;19922;-60
2022/08/17 12:42:19;;;;;;;;;;;;;;;30.09;44.54;100501.56;4931567;29;20302;-59
2022/08/17 12:45:06;;;;;;;;;;;;;;;30.11;44.87;100499.13;4934878;29;20286;-60
2022/08/17 12:48:05;;;;;;;;;;;;;;;30.10;44.67;100481.50;4928515;29;19918;-60
2022/08/17 12:50:50;;;;;;;;;;;;;;;30.10;44.20;100480.72;4930762;29;20387;-59
2022/08/17 12:53:35;;;;;;;;;;;;;;;30.10;44.47;100480.72;4928825;29;20408;-60
2022/08/17 12:56:20;;;;;;;;;;;;;;;30.14;44.07;100489.78;4925168;29;19914;-60
2022/08/17 12:59:05;;;;;;;;;;;;;;;30.18;44.71;100479.22;4928988;29;19915;-59
2022/08/17 13:01:50;;;;;;;;;;;;;;;30.26;44.81;100493.78;4923535;29;19914;-59
2022/08/17 13:04:38;;;;;;;;;;;;;;;30.30;44.97;100481.19;4934980;29;19919;-59
2022/08/17 13:07:28;;;;;;;;;;;;;;;30.32;44.70;100489.94;4929330;29;19914;-60
2022/08/17 13:10:27;;;;;;;;;;;;;;;30.28;44.49;100486.44;4916086;29;19918;-59
2022/08/17 13:13:19;;;;;;;;;;;;;;;30.29;44.66;100492.84;4934413;29;19918;-60
2022/08/17 13:16:10;;;;;;;;;;;;;;;30.31;44.15;100496.78;4932740;29;19922;-60
2022/08/17 13:19:06;;;;;;;;;;;;;;;30.33;44.27;100488.69;4924945;29;19914;-60
2022/08/17 13:21:52;;;;;;;;;;;;;;;30.34;44.02;100487.44;4933669;29;20566;-59
2022/08/17 13:24:36;;;;;;;;;;;;;;;30.35;43.47;100480.59;4935553;29;19914;-60
2022/08/17 13:27:22;;;;;;;;;;;;;;;30.37;43.27;100494.97;4939234;29;20362;-60
2022/08/17 13:30:10;;;;;;;;;;;;;;;30.37;43.35;100494.97;4933885;29;19914;-60
2022/08/17 13:32:55;;;;;;;;;;;;;;;30.38;43.71;100495.72;4935229;29;19914;-60
2022/08/17 13:35:43;;;;;;;;;;;;;;;30.41;43.71;100495.63;4929452;29;19923;-60
2022/08/17 13:38:48;;;;;;;;;;;;;;;30.46;43.02;100503.47;4925150;29;20306;-60
2022/08/17 13:41:35;;;;;;;;;;;;;;;30.46;43.02;100497.88;4933150;29;19923;-60
2022/08/17 13:44:30;;;;;;;;;;;;;;;30.47;43.33;100499.44;4938438;29;20286;-60
2022/08/17 13:47:16;;;;;;;;;;;;;;;30.47;43.27;100499.44;4935867;29;19915;-60
2022/08/17 13:50:01;;;;;;;;;;;;;;;30.48;43.08;100488.97;4934807;29;19914;-59
2022/08/17 13:52:46;;;;;;;;;;;;;;;30.47;42.93;100487.44;4938026;29;19914;-59
2022/08/17 13:55:30;;;;;;;;;;;;;;;30.47;42.93;100476.97;4940233;29;19915;-60
2022/08/17 13:58:20;;;;;;;;;;;;;;;30.48;43.19;100472.91;4943842;23;19923;-63
2022/08/17 14:01:24;;;;;;;;;;;;;;;30.48;43.43;100469.31;4924888;29;20375;-65
2022/08/17 14:04:10;;;;;;;;;;;;;;;30.45;43.63;100462.59;4918793;29;19915;-64
2022/08/17 14:07:01;;;;;;;;;;;;;;;30.44;43.48;100451.81;4918771;29;19919;-64
2022/08/17 14:10:00;;;;;;;;;;;;;;;30.40;43.50;100459.56;4917529;29;19914;-63
2022/08/17 14:12:44;;;;;;;;;;;;;;;30.38;43.47;100446.00;4915073;29;19919;-64
2022/08/17 14:15:29;;;;;;;;;;;;;;;30.36;43.52;100436.47;4915309;29;20309;-63
2022/08/17 14:18:16;;;;;;;;;;;;;;;30.35;43.47;100430.09;4920336;29;20535;-63
2022/08/17 14:21:01;;;;;;;;;;;;;;;30.35;43.53;100432.88;4914102;29;19919;-64
2022/08/17 14:23:45;;;;;;;;;;;;;;;30.34;43.10;100428.50;4918165;29;19915;-64
2022/08/17 14:26:30;;;;;;;;;;;;;;;30.34;43.07;100428.50;4918245;29;19915;-64
2022/08/17 14:29:14;;;;;;;;;;;;;;;30.33;43.24;100418.53;4917720;29;20326;-64
2022/08/17 14:32:01;;;;;;;;;;;;;;;30.33;43.76;100415.72;4917725;29;19919;-64
2022/08/17 14:34:48;;;;;;;;;;;;;;;30.32;43.31;100410.59;4920561;29;19915;-64
2022/08/17 14:37:33;;;;;;;;;;;;;;;30.32;44.41;100422.59;4917459;29;19915;-63
2022/08/17 14:40:19;;;;;;;;;;;;;;;30.30;43.56;100427.88;4915754;29;19923;-63
2022/08/17 14:43:04;;;;;;;;;;;;;;;30.29;44.00;100431.13;4917221;29;19915;-64
2022/08/17 14:45:48;;;;;;;;;;;;;;;30.28;44.39;100430.34;4917943;29;19915;-64
2022/08/17 14:48:37;;;;;;;;;;;;;;;30.26;45.09;100412.41;4917426;29;19915;-64
2022/08/17 14:51:23;;;;;;;;;;;;;;;30.24;44.41;100393.22;4916445;29;19923;-64
2022/08/17 14:54:07;;;;;;;;;;;;;;;30.20;45.28;100381.34;4911497;29;20306;-64